Monroe County Airport
KBMG : now visible

Airfield :











YOU CAN JOIN US ON...

 
LOGIN :

Register | Disclaimer

   EN    FR    IT 

 









Legend :    VFR   Marginal VFR   IFR   Intensive IFR   Very Intensive IFR
Visi :
Ceiling :
>= 8 km
>= 3000ft
5 to 8 km
1000 to 3000 ft
1500m to 5 km
500 to 1000 ft
800 to 1500m
200 to 500 ft
< 800m
< 200 ft
Symbols :   Thunderstorms  Fog  Heavy snow  Heavy precipitations  Wind > 20 kt






- Airport Elevation : 846 ft
- IATA code : BMG


KBMG - Monroe County

CURRENT METAR :
  • 090053Z 00000KT 10SM CLR 26/22 A2993 RMK AO2 SLP124 T02610217

EXPIRED METARs :
  • 082353Z 00000KT 10SM CLR 28/21 A2991 RMK AO2 SLP118 T02780211 10294 20244 58009
  • 082253Z 20006KT 10SM CLR 28/21 A2994 RMK AO2 SLP128 T02830206

TAF KBMG
Valid from the 09 at 00:00 until the 10 at 00:00 UTC


082324Z 0900/0924 20006KT P6SM FEW050 SCT100
FM090200 00000KT P6SM FEW050 SCT100
FM091600 18005KT P6SM VCSH SCT045 BKN100
FM092000 16006KT P6SM SCT060 BKN100
FM092200 VRB04KT P6SM FEW060 SCT100 AMD LTD TO CLD VIS AND WIND 0901/0913
KZID FIR / North America



MET'MAP, your aeronautical weather chart ! - Copyright ORBIFLY December 2007 - Disclaimer

ORBIFLY MET'MAP TEAM :

Programming & Development : Alexandra Zaïnal
Concept & original design : Baudouin d'Aumeries
Assistance for programming : Marc-Olivier Méhu
Technical & hardware support : Manuel Goepfert

Contact : metmap@orbifly.com




SOURCES & CREDITS :

   NOAA       Earth
Advisory